createdAt,value
2023-03-02T00:00:43.240Z,63.03
2023-03-02T00:01:43.237Z,63.24
2023-03-02T00:03:48.242Z,63.34
2023-03-02T00:04:47.137Z,62.30
2023-03-02T00:05:47.068Z,63.65
2023-03-02T00:07:23.371Z,63.34
2023-03-02T00:07:47.077Z,62.93
2023-03-02T00:08:47.073Z,62.72
2023-03-02T00:09:47.027Z,62.93
2023-03-02T00:10:47.041Z,63.34
2023-03-02T00:11:47.027Z,63.27
2023-03-02T00:12:47.002Z,63.27
2023-03-02T00:13:46.981Z,63.45
2023-03-02T00:14:46.998Z,63.45
2023-03-02T00:15:46.997Z,63.68
2023-03-02T00:16:46.987Z,63.55
2023-03-02T00:17:46.945Z,64.21
2023-03-02T00:18:46.928Z,64.42
2023-03-02T00:19:46.988Z,63.79
2023-03-02T00:20:46.899Z,63.82
2023-03-02T00:21:46.917Z,64.23
2023-03-02T00:22:46.919Z,64.16
2023-03-02T00:23:46.870Z,64.69
2023-03-02T00:24:46.898Z,64.89
2023-03-02T00:25:46.866Z,64.58
2023-03-02T00:26:46.881Z,64.82
2023-03-02T00:27:46.849Z,65.44
2023-03-02T00:28:46.849Z,65.86
2023-03-02T00:29:46.840Z,66.17
2023-03-02T00:30:46.825Z,66.80
2023-03-02T00:31:46.859Z,66.69
2023-03-02T00:32:46.820Z,65.89
2023-03-02T00:33:46.837Z,65.89
2023-03-02T00:34:46.782Z,66.83
2023-03-02T00:35:46.845Z,67.74
2023-03-02T00:36:46.745Z,67.98
2023-03-02T00:37:46.742Z,68.82
2023-03-02T00:38:46.749Z,67.98
2023-03-02T00:39:46.775Z,67.11
2023-03-02T00:40:46.687Z,67.14
2023-03-02T00:41:46.726Z,66.80
2023-03-02T00:42:46.717Z,66.83
2023-03-02T00:43:46.686Z,66.80
2023-03-02T00:44:46.672Z,66.49
2023-03-02T00:45:46.662Z,66.49
2023-03-02T00:46:46.764Z,66.38
2023-03-02T00:47:46.653Z,66.17
2023-03-02T00:48:46.647Z,66.38
2023-03-02T00:49:46.649Z,67.11
2023-03-02T00:50:46.619Z,66.94
2023-03-02T00:51:46.593Z,66.59
2023-03-02T00:52:46.607Z,65.75
2023-03-02T00:53:46.615Z,65.86
2023-03-02T00:54:46.562Z,66.28
2023-03-02T00:55:46.535Z,65.97
2023-03-02T00:56:46.526Z,66.17
2023-03-02T00:57:46.535Z,65.73
2023-03-02T00:58:46.519Z,66.14
2023-03-02T00:59:46.539Z,65.86
2023-03-02T01:00:46.538Z,66.17
2023-03-02T01:01:46.473Z,65.86
2023-03-02T01:02:46.646Z,65.73
2023-03-02T01:03:46.463Z,66.07
2023-03-02T01:04:46.497Z,65.75
2023-03-02T01:05:46.443Z,65.75
2023-03-02T01:06:46.434Z,66.14
2023-03-02T01:07:46.413Z,66.07
2023-03-02T01:08:46.433Z,65.65
2023-03-02T01:09:46.424Z,66.38
2023-03-02T01:10:46.383Z,66.28
2023-03-02T01:11:46.378Z,66.69
2023-03-02T01:12:46.399Z,66.56
2023-03-02T01:13:46.365Z,65.97
2023-03-02T01:14:46.437Z,66.07
2023-03-02T01:15:46.410Z,66.38
2023-03-02T01:16:46.338Z,66.80
2023-03-02T01:17:46.327Z,66.59
2023-03-02T01:18:46.339Z,66.17
2023-03-02T01:19:46.338Z,66.38
2023-03-02T01:20:46.279Z,66.69
2023-03-02T01:21:46.258Z,65.97
2023-03-02T01:22:46.290Z,66.69
2023-03-02T01:23:46.284Z,67.32
2023-03-02T01:24:46.266Z,66.98
2023-03-02T01:25:46.267Z,66.80
2023-03-02T01:26:46.224Z,66.28
2023-03-02T01:27:46.249Z,66.17
2023-03-02T01:28:46.241Z,66.07
2023-03-02T01:29:46.219Z,66.69
2023-03-02T01:30:46.247Z,66.69
2023-03-02T01:31:46.259Z,66.59
2023-03-02T01:32:46.250Z,66.38
2023-03-02T01:33:46.169Z,66.38
2023-03-02T01:34:46.184Z,66.72
2023-03-02T01:35:46.190Z,66.49
2023-03-02T01:36:46.170Z,65.97
2023-03-02T01:37:46.169Z,65.75
2023-03-02T01:38:46.177Z,65.75
2023-03-02T01:39:46.122Z,65.86
2023-03-02T01:40:46.141Z,65.97
2023-03-02T01:41:46.130Z,66.07
2023-03-02T01:42:46.077Z,65.86
2023-03-02T01:43:46.110Z,65.75
2023-03-02T01:44:46.048Z,65.86
2023-03-02T01:45:46.089Z,65.13
2023-03-02T01:46:46.021Z,65.03
2023-03-02T01:47:46.039Z,65.44
2023-03-02T01:48:45.995Z,65.86
2023-03-02T01:49:46.014Z,65.41
2023-03-02T01:50:45.991Z,65.55
2023-03-02T01:51:45.995Z,66.17
2023-03-02T01:52:45.971Z,66.49
2023-03-02T01:53:46.051Z,66.31
2023-03-02T01:54:45.929Z,65.68
2023-03-02T01:55:46.015Z,66.10
2023-03-02T01:56:45.924Z,66.62
2023-03-02T01:57:45.935Z,65.78
2023-03-02T01:58:45.881Z,66.62
2023-03-02T01:59:45.877Z,66.94
2023-03-02T02:00:45.959Z,66.62
2023-03-02T02:01:45.918Z,66.65
2023-03-02T02:02:45.876Z,66.24
2023-03-02T02:03:45.897Z,66.24
2023-03-02T02:04:45.857Z,66.55
2023-03-02T02:05:45.836Z,67.31
2023-03-02T02:06:45.833Z,67.62
2023-03-02T02:07:45.816Z,68.15
2023-03-02T02:08:45.806Z,68.35
2023-03-02T02:09:45.771Z,68.15
2023-03-02T02:10:45.820Z,67.97
2023-03-02T02:11:45.783Z,68.49
2023-03-02T02:12:45.759Z,67.86
2023-03-02T02:13:45.773Z,68.18
2023-03-02T02:14:45.741Z,68.70
2023-03-02T02:15:45.735Z,68.31
2023-03-02T02:16:45.768Z,68.31
2023-03-02T02:17:45.745Z,69.15
2023-03-02T02:18:45.728Z,69.36
2023-03-02T02:19:45.717Z,69.26
2023-03-02T02:20:45.723Z,69.15
2023-03-02T02:21:45.721Z,68.84
2023-03-02T02:22:45.651Z,69.26
2023-03-02T02:23:45.623Z,68.63
2023-03-02T02:24:45.620Z,68.84
2023-03-02T02:25:45.672Z,69.15
2023-03-02T02:26:45.654Z,69.57
2023-03-02T02:27:45.598Z,68.94
2023-03-02T02:28:45.595Z,69.99
2023-03-02T02:29:45.559Z,69.78
2023-03-02T02:30:45.621Z,69.81
2023-03-02T02:31:45.599Z,70.02
2023-03-02T02:32:45.623Z,69.81
2023-03-02T02:33:45.532Z,70.02
2023-03-02T02:34:45.520Z,69.92
2023-03-02T02:35:45.584Z,70.23
2023-03-02T02:36:45.505Z,71.28
2023-03-02T02:37:45.501Z,71.41
2023-03-02T02:38:45.481Z,71.20
2023-03-02T02:39:45.483Z,70.99
2023-03-02T02:40:45.483Z,71.41
2023-03-02T02:41:45.501Z,72.07
2023-03-02T02:42:45.426Z,73.33
2023-03-02T02:43:45.444Z,73.65
2023-03-02T02:44:45.474Z,72.91
2023-03-02T02:45:45.458Z,73.12
2023-03-02T02:46:45.395Z,73.36
2023-03-02T02:47:45.368Z,73.89
2023-03-02T02:48:45.360Z,73.99
2023-03-02T02:49:45.357Z,73.89
2023-03-02T02:50:45.350Z,73.57
2023-03-02T02:51:45.364Z,72.18
2023-03-02T02:52:45.314Z,72.49
2023-03-02T02:53:45.318Z,71.51
2023-03-02T02:54:45.300Z,71.73
2023-03-02T02:55:45.296Z,71.76
2023-03-02T02:56:45.305Z,71.73
2023-03-02T02:57:45.292Z,71.44
2023-03-02T02:58:45.261Z,70.89
2023-03-02T02:59:45.268Z,70.99
2023-03-02T03:00:45.257Z,70.02
2023-03-02T03:01:45.321Z,71.20
2023-03-02T03:02:45.255Z,70.43
2023-03-02T03:03:46.503Z,70.02
2023-03-02T03:04:46.469Z,69.99
2023-03-02T03:05:47.461Z,69.92
2023-03-02T03:06:46.458Z,70.43
2023-03-02T03:07:46.401Z,69.78
2023-03-02T03:08:46.417Z,70.23
2023-03-02T03:09:46.383Z,70.20
2023-03-02T03:10:46.361Z,70.43
2023-03-02T03:11:46.416Z,69.92
2023-03-02T03:12:46.391Z,70.02
2023-03-02T03:13:47.376Z,70.54
2023-03-02T03:14:46.328Z,70.02
2023-03-02T03:15:46.350Z,70.09
2023-03-02T03:16:46.500Z,70.02
2023-03-02T03:17:46.331Z,70.30
2023-03-02T03:18:46.260Z,69.78
2023-03-02T03:19:46.275Z,69.57
2023-03-02T03:20:46.323Z,68.00
2023-03-02T03:21:46.265Z,68.07
2023-03-02T03:22:46.288Z,68.18
2023-03-02T03:23:46.215Z,68.18
2023-03-02T03:24:46.214Z,68.18
2023-03-02T03:25:46.216Z,68.80
2023-03-02T03:26:46.237Z,69.15
2023-03-02T03:27:46.215Z,68.63
2023-03-02T03:28:46.265Z,68.63
2023-03-02T03:29:46.172Z,69.60
2023-03-02T03:30:46.206Z,69.81
2023-03-02T03:31:46.210Z,70.02
2023-03-02T03:32:46.226Z,70.47
2023-03-02T03:33:46.182Z,70.96
2023-03-02T03:34:46.114Z,70.37
2023-03-02T03:35:46.218Z,70.47
2023-03-02T03:36:46.155Z,70.33
2023-03-02T03:37:46.130Z,70.43
2023-03-02T03:38:46.138Z,70.47
2023-03-02T03:39:46.125Z,70.57
2023-03-02T03:40:46.131Z,70.02
2023-03-02T03:41:46.159Z,69.92
2023-03-02T03:42:46.041Z,70.33
2023-03-02T03:43:46.069Z,70.47
2023-03-02T03:44:46.064Z,70.78
2023-03-02T03:45:46.080Z,71.10
2023-03-02T03:46:46.055Z,71.51
2023-03-02T03:47:46.073Z,71.51
2023-03-02T03:48:46.028Z,71.20
2023-03-02T03:49:45.982Z,71.10
2023-03-02T03:50:46.034Z,70.37
2023-03-02T03:51:45.999Z,71.41
2023-03-02T03:52:45.998Z,71.73
2023-03-02T03:53:47.031Z,71.86
2023-03-02T03:54:45.914Z,71.86
2023-03-02T03:55:46.027Z,71.76
2023-03-02T03:56:45.954Z,72.39
2023-03-02T03:57:45.886Z,72.84
2023-03-02T03:58:45.967Z,73.26
2023-03-02T03:59:45.868Z,72.63
2023-03-02T04:00:45.881Z,72.28
2023-03-02T04:01:45.976Z,72.21
2023-03-02T04:02:45.916Z,72.11
2023-03-02T04:03:45.840Z,72.11
2023-03-02T04:04:45.843Z,71.76
2023-03-02T04:05:45.846Z,71.13
2023-03-02T04:06:45.791Z,71.41
2023-03-02T04:07:45.802Z,70.37
2023-03-02T04:08:45.775Z,70.68
2023-03-02T04:09:45.738Z,70.37
2023-03-02T04:10:45.746Z,70.12
2023-03-02T04:11:45.796Z,70.02
2023-03-02T04:12:45.795Z,69.99
2023-03-02T04:13:45.712Z,69.04
2023-03-02T04:14:45.737Z,68.73
2023-03-02T04:15:47.113Z,68.73
2023-03-02T04:16:46.788Z,68.00
2023-03-02T04:17:45.765Z,67.90
2023-03-02T04:18:45.734Z,69.04
2023-03-02T04:19:45.712Z,69.01
2023-03-02T04:20:45.721Z,68.94
2023-03-02T04:21:45.696Z,69.04
2023-03-02T04:22:45.752Z,69.36
2023-03-02T04:23:45.700Z,69.26
2023-03-02T04:24:45.677Z,68.63
2023-03-02T04:25:45.648Z,68.00
2023-03-02T04:26:45.704Z,68.52
2023-03-02T04:27:45.638Z,68.63
2023-03-02T04:28:45.604Z,69.15
2023-03-02T04:29:45.629Z,68.97
2023-03-02T04:30:45.663Z,69.49
2023-03-02T04:31:45.590Z,69.18
2023-03-02T04:32:45.595Z,69.92
2023-03-02T04:33:45.571Z,69.92
2023-03-02T04:34:45.622Z,69.57
2023-03-02T04:35:45.540Z,68.76
2023-03-02T04:36:45.560Z,68.52
2023-03-02T04:37:45.499Z,69.36
2023-03-02T04:38:45.536Z,69.15
2023-03-02T04:39:45.487Z,68.84
2023-03-02T04:40:45.520Z,69.39
2023-03-02T04:41:45.471Z,68.24
2023-03-02T04:42:45.523Z,67.79
2023-03-02T04:43:45.492Z,68.41
2023-03-02T04:44:46.494Z,68.63
2023-03-02T04:45:45.460Z,68.63
2023-03-02T04:46:45.485Z,68.84
2023-03-02T04:47:45.456Z,69.15
2023-03-02T04:48:45.469Z,68.31
2023-03-02T04:49:45.380Z,68.31
2023-03-02T04:50:45.394Z,68.84
2023-03-02T04:51:45.378Z,68.31
2023-03-02T04:52:45.410Z,67.90
2023-03-02T04:53:45.409Z,68.41
2023-03-02T04:54:45.375Z,69.15
2023-03-02T04:55:45.412Z,68.31
2023-03-02T04:56:45.346Z,68.10
2023-03-02T04:57:45.355Z,68.10
2023-03-02T04:58:45.342Z,68.21
2023-03-02T04:59:45.309Z,68.31
2023-03-02T05:00:45.323Z,67.90
2023-03-02T05:01:45.306Z,68.00
2023-03-02T05:02:45.280Z,68.21
2023-03-02T05:03:45.282Z,68.73
2023-03-02T05:04:45.360Z,68.63
2023-03-02T05:05:45.301Z,68.41
2023-03-02T05:06:45.325Z,67.68
2023-03-02T05:07:45.312Z,67.68
2023-03-02T05:08:45.260Z,67.86
2023-03-02T05:09:45.232Z,67.68
2023-03-02T05:10:45.238Z,67.65
2023-03-02T05:11:45.213Z,67.47
2023-03-02T05:12:45.208Z,67.47
2023-03-02T05:13:45.183Z,67.47
2023-03-02T05:14:45.854Z,67.47
2023-03-02T05:15:46.212Z,67.90
2023-03-02T05:16:45.174Z,67.58
2023-03-02T05:17:45.160Z,67.58
2023-03-02T05:18:45.174Z,67.47
2023-03-02T05:19:45.163Z,67.90
2023-03-02T05:20:45.102Z,68.10
2023-03-02T05:21:45.139Z,68.45
2023-03-02T05:22:45.145Z,68.52
2023-03-02T05:23:45.151Z,68.13
2023-03-02T05:24:45.111Z,68.41
2023-03-02T05:25:45.058Z,68.03
2023-03-02T05:26:45.175Z,68.45
2023-03-02T05:27:45.062Z,67.93
2023-03-02T05:28:45.074Z,68.00
2023-03-02T05:29:45.069Z,68.03
2023-03-02T05:30:45.085Z,68.21
2023-03-02T05:31:45.080Z,68.00
2023-03-02T05:32:45.026Z,67.68
2023-03-02T05:33:45.004Z,67.37
2023-03-02T05:34:44.996Z,67.58
2023-03-02T05:35:45.036Z,67.79
2023-03-02T05:36:44.964Z,67.90
2023-03-02T05:37:44.993Z,67.37
2023-03-02T05:38:44.965Z,67.79
2023-03-02T05:39:44.942Z,66.64
2023-03-02T05:40:45.917Z,66.85
2023-03-02T05:41:45.165Z,67.06
2023-03-02T05:42:44.924Z,66.64
2023-03-02T05:43:44.892Z,66.96
2023-03-02T05:44:44.888Z,66.43
2023-03-02T05:45:44.877Z,66.53
2023-03-02T05:46:45.006Z,65.80
2023-03-02T06:30:51.084Z,68.55
2023-03-02T06:31:36.721Z,68.76
2023-03-02T06:32:36.718Z,69.21
2023-03-02T06:41:42.397Z,70.78
2023-03-02T06:42:42.409Z,70.02
2023-03-02T06:43:42.649Z,70.33
2023-03-02T06:44:43.346Z,70.12
2023-03-02T06:45:42.500Z,70.12
2023-03-02T06:49:59.508Z,69.99
2023-03-02T06:50:34.402Z,68.73
2023-03-02T06:51:34.381Z,69.15
2023-03-02T06:53:08.554Z,67.97
2023-03-02T06:53:34.362Z,67.44
2023-03-02T06:54:34.292Z,68.04
2023-03-02T06:55:34.339Z,67.41
2023-03-02T06:56:34.705Z,67.31
2023-03-02T06:58:49.528Z,65.61
2023-03-02T06:59:47.255Z,65.81
2023-03-02T07:00:46.971Z,66.24
2023-03-02T07:02:22.855Z,65.81
2023-03-02T07:02:46.940Z,66.41
2023-03-02T07:03:46.928Z,65.78
2023-03-02T07:04:46.897Z,65.78
2023-03-02T07:05:46.862Z,65.78
2023-03-02T07:06:46.866Z,65.78
2023-03-02T07:07:46.850Z,65.55
2023-03-02T07:08:46.838Z,65.97
2023-03-02T07:47:55.145Z,56.55
2023-03-02T07:48:29.095Z,56.73
2023-03-02T07:49:29.080Z,56.23
2023-03-02T07:50:29.121Z,56.62
2023-03-02T07:51:29.057Z,56.31
2023-03-02T07:52:29.639Z,56.62
2023-03-02T07:53:29.064Z,57.67
2023-03-02T07:54:29.025Z,56.60
2023-03-02T07:55:29.026Z,55.66
2023-03-02T07:56:29.008Z,54.94
2023-03-02T07:57:28.996Z,55.33
2023-03-02T07:58:29.033Z,55.95
2023-03-02T07:59:28.989Z,54.91
2023-03-02T08:00:29.093Z,56.37
2023-03-02T08:01:29.048Z,54.08
2023-03-02T08:02:28.969Z,53.88
2023-03-02T08:03:28.970Z,54.39
2023-03-02T08:04:28.926Z,53.85
2023-03-02T08:05:28.912Z,54.19
2023-03-02T08:06:28.912Z,54.29
2023-03-02T08:07:28.909Z,54.91
2023-03-02T08:08:28.931Z,54.47
2023-03-02T08:09:28.910Z,52.71
2023-03-02T08:10:28.885Z,53.75
2023-03-02T08:11:28.869Z,53.30
2023-03-02T08:12:28.909Z,53.61
2023-03-02T08:13:28.857Z,53.96
2023-03-02T08:14:28.853Z,52.58
2023-03-02T08:15:28.817Z,52.79
2023-03-02T08:16:28.828Z,53.51
2023-03-02T08:17:28.938Z,53.10
2023-03-02T08:18:28.799Z,52.76
2023-03-02T08:19:28.801Z,51.83
2023-03-02T08:20:29.185Z,52.25
2023-03-02T08:21:28.753Z,52.56
2023-03-02T08:28:21.467Z,52.01
2023-03-02T08:29:21.488Z,51.18
2023-03-02T08:30:21.484Z,51.42
2023-03-02T08:31:21.530Z,51.08
2023-03-02T08:32:21.470Z,51.29
2023-03-02T08:33:21.526Z,51.50
2023-03-02T08:34:42.440Z,52.12
2023-03-02T08:35:21.415Z,51.81
2023-03-02T08:36:21.426Z,52.92
2023-03-02T08:37:21.385Z,50.98
2023-03-02T08:39:47.373Z,51.37
2023-03-02T08:40:47.353Z,51.99
2023-03-02T08:41:47.334Z,51.24
2023-03-02T08:42:47.320Z,51.55
2023-03-02T08:43:47.327Z,50.41
2023-03-02T08:44:47.304Z,50.31
2023-03-02T08:45:47.346Z,50.85
2023-03-02T08:46:47.291Z,50.51
2023-03-02T08:47:47.268Z,50.18
2023-03-02T08:48:47.262Z,50.82
2023-03-02T08:49:48.322Z,49.90
2023-03-02T08:50:47.233Z,50.08
2023-03-02T08:51:47.230Z,50.49
2023-03-02T08:52:47.219Z,50.60
2023-03-02T08:53:47.212Z,50.39
2023-03-02T08:54:47.217Z,49.98
2023-03-02T08:55:47.174Z,49.98
2023-03-02T08:56:47.178Z,49.87
2023-03-02T08:57:47.163Z,49.98
2023-03-02T08:58:47.161Z,49.04
2023-03-02T08:59:47.134Z,49.95
2023-03-02T09:00:47.222Z,50.65
2023-03-02T09:01:47.190Z,49.70
2023-03-02T09:02:47.111Z,50.09
2023-03-02T09:03:47.105Z,49.26
2023-03-02T09:04:47.092Z,49.16
2023-03-02T09:05:47.204Z,49.04
2023-03-02T09:07:48.116Z,48.62
2023-03-02T09:08:47.076Z,47.81
2023-03-02T09:09:47.044Z,48.00
2023-03-02T09:10:47.041Z,47.92
2023-03-02T09:11:47.026Z,48.93
2023-03-02T09:12:47.010Z,49.11
2023-03-02T09:13:47.047Z,46.88
2023-03-02T09:14:47.021Z,46.72
2023-03-02T09:19:13.213Z,43.24
2023-03-02T09:19:49.297Z,42.17
2023-03-02T09:20:49.168Z,42.05
2023-03-02T09:23:18.318Z,41.39
2023-03-02T09:24:15.261Z,40.78
2023-03-02T09:25:16.293Z,41.48
2023-03-02T09:26:15.127Z,40.84
2023-03-02T09:27:15.643Z,40.52
2023-03-02T09:28:15.079Z,40.79
2023-03-02T09:29:15.063Z,38.32
2023-03-02T09:30:15.046Z,39.22
2023-03-02T09:31:15.026Z,39.01
2023-03-02T09:32:15.113Z,38.59
2023-03-02T09:33:15.062Z,37.57
2023-03-02T09:34:15.011Z,37.55
2023-03-02T09:35:14.987Z,38.84
2023-03-02T09:36:14.981Z,38.12
2023-03-02T09:37:14.981Z,38.87
2023-03-02T09:38:15.033Z,36.71
2023-03-02T09:39:15.027Z,35.04
2023-03-02T09:40:14.959Z,33.63
2023-03-02T09:41:14.963Z,34.85
2023-03-02T09:42:14.931Z,34.82
2023-03-02T09:43:15.109Z,32.86
2023-03-02T09:44:14.941Z,34.08
2023-03-02T09:45:15.072Z,33.06
2023-03-02T09:46:14.939Z,32.23
2023-03-02T09:47:16.501Z,31.83
2023-03-02T09:48:14.927Z,32.71
2023-03-02T09:49:14.943Z,30.29
2023-03-02T09:56:29.038Z,29.24
2023-03-02T09:57:29.027Z,31.61
2023-03-02T09:58:29.009Z,31.52
2023-03-02T09:59:29.028Z,32.22
2023-03-02T10:00:29.041Z,30.51
2023-03-02T10:01:29.123Z,30.62
2023-03-02T10:02:28.966Z,31.73
2023-03-02T10:03:29.059Z,30.90
2023-03-02T10:04:29.097Z,31.49
2023-03-02T10:05:28.942Z,31.37
2023-03-02T10:06:28.972Z,29.74
2023-03-02T10:07:28.919Z,31.74
2023-03-02T10:08:28.901Z,29.61
2023-03-02T10:09:28.903Z,29.60
2023-03-02T10:10:28.884Z,30.79
2023-03-02T10:11:28.911Z,33.04
2023-03-02T10:12:28.879Z,27.88
2023-03-02T10:13:28.852Z,27.92
2023-03-02T10:14:29.005Z,29.85
2023-03-02T10:15:28.829Z,30.52
2023-03-02T10:16:28.906Z,29.17
2023-03-02T10:17:28.815Z,31.78
2023-03-02T10:18:28.851Z,32.48
2023-03-02T10:19:28.812Z,30.63
2023-03-02T10:20:34.142Z,31.34
2023-03-02T10:21:29.778Z,31.67
2023-03-02T10:22:28.789Z,32.79
2023-03-02T10:23:28.795Z,30.48
2023-03-02T10:24:29.224Z,32.64
2023-03-02T10:25:28.734Z,32.06
2023-03-02T10:26:28.716Z,32.28
2023-03-02T10:27:28.750Z,33.18
2023-03-02T10:28:28.732Z,32.74
2023-03-02T10:29:28.757Z,33.50
2023-03-02T10:30:28.699Z,31.65
2023-03-02T10:31:28.805Z,30.22
2023-03-02T10:32:28.727Z,28.62
2023-03-02T10:33:28.761Z,29.63
2023-03-02T10:34:28.686Z,29.91
2023-03-02T10:35:28.680Z,30.50
2023-03-02T10:36:28.663Z,30.91
2023-03-02T10:37:28.631Z,30.74
2023-03-02T10:38:28.636Z,30.55
2023-03-02T10:39:28.661Z,30.35
2023-03-02T10:40:28.686Z,30.86
2023-03-02T10:41:28.608Z,30.21
2023-03-02T10:42:28.622Z,29.72
2023-03-02T10:43:28.568Z,29.93
2023-03-02T10:44:28.543Z,30.66
2023-03-02T10:45:28.649Z,32.71
2023-03-02T10:46:28.612Z,31.41
2023-03-02T10:47:28.502Z,31.57
2023-03-02T10:48:28.583Z,30.74
2023-03-02T10:49:28.549Z,29.95
2023-03-02T10:50:28.523Z,29.76
2023-03-02T10:51:28.482Z,29.24
2023-03-02T10:52:28.535Z,30.19
2023-03-02T10:53:28.431Z,30.62
2023-03-02T10:54:28.428Z,30.62
2023-03-02T10:55:28.541Z,29.60
2023-03-02T10:56:28.460Z,30.90
2023-03-02T10:57:28.458Z,30.71
2023-03-02T10:58:28.421Z,30.89
2023-03-02T10:59:28.457Z,29.25
2023-03-02T11:00:28.441Z,29.72
2023-03-02T11:01:28.478Z,27.97
2023-03-02T11:02:28.362Z,26.57
2023-03-02T11:03:28.400Z,27.78
2023-03-02T11:04:28.407Z,26.38
2023-03-02T11:05:28.380Z,27.51
2023-03-02T11:06:28.335Z,27.10
2023-03-02T11:07:28.380Z,26.59
2023-03-02T11:08:28.328Z,27.40
2023-03-02T11:09:28.309Z,26.58
2023-03-02T11:10:28.268Z,25.59
2023-03-02T11:11:28.330Z,26.39
2023-03-02T11:12:28.241Z,27.06
2023-03-02T11:13:28.246Z,25.93
2023-03-02T11:14:28.205Z,24.62
2023-03-02T11:15:28.235Z,24.11
2023-03-02T11:16:28.433Z,24.25
2023-03-02T11:17:28.185Z,25.38
2023-03-02T11:18:28.184Z,25.99
2023-03-02T11:19:28.169Z,25.59
2023-03-02T11:20:28.225Z,25.18
2023-03-02T11:21:28.144Z,25.40
2023-03-02T11:22:28.204Z,24.99
2023-03-02T11:23:28.183Z,24.69
2023-03-02T11:24:28.161Z,25.60
2023-03-02T11:25:28.142Z,25.51
2023-03-02T11:26:42.821Z,25.37
2023-03-02T11:27:28.091Z,25.83
2023-03-02T11:28:28.094Z,24.58
2023-03-02T11:29:28.075Z,23.49
2023-03-02T11:30:28.071Z,24.52
2023-03-02T11:31:28.102Z,23.81
2023-03-02T11:32:28.141Z,24.32
2023-03-02T11:33:51.342Z,24.30
2023-03-02T11:37:32.260Z,24.08
2023-03-02T11:38:32.022Z,23.68
2023-03-02T11:39:32.018Z,23.58
2023-03-02T11:40:32.001Z,22.99
2023-03-02T11:41:32.250Z,23.19
2023-03-02T11:42:32.079Z,24.19
2023-03-02T11:43:31.970Z,23.86
2023-03-02T11:44:31.958Z,24.16
2023-03-02T11:45:31.962Z,24.63
2023-03-02T11:46:31.959Z,22.31
2023-03-02T11:47:31.942Z,22.60
2023-03-02T11:48:31.934Z,22.88
2023-03-02T11:49:31.908Z,22.47
2023-03-02T11:50:31.936Z,21.51
2023-03-02T11:51:32.202Z,22.72
2023-03-02T11:52:31.905Z,21.42
2023-03-02T11:53:31.882Z,22.32
2023-03-02T11:54:31.856Z,23.32
2023-03-02T11:55:31.857Z,21.99
2023-03-02T11:56:31.845Z,21.48
2023-03-02T11:57:40.105Z,21.59
2023-03-02T11:58:40.897Z,23.18
2023-03-02T11:59:31.909Z,21.67
2023-03-02T12:00:33.306Z,21.28
2023-03-02T12:01:33.319Z,21.87
2023-03-02T12:02:32.961Z,21.34
2023-03-02T12:03:32.958Z,20.75
2023-03-02T12:04:32.972Z,20.54
2023-03-02T12:05:32.972Z,20.73
2023-03-02T12:06:33.226Z,19.74
2023-03-02T12:07:32.906Z,20.27
2023-03-02T12:08:32.952Z,20.58
2023-03-02T12:09:32.893Z,20.61
2023-03-02T12:10:32.904Z,21.29
2023-03-02T12:11:32.890Z,22.27
2023-03-02T12:12:32.898Z,22.48
2023-03-02T12:13:32.848Z,22.46
2023-03-02T12:14:32.866Z,20.16
2023-03-02T12:15:32.874Z,22.66
2023-03-02T12:16:33.099Z,21.44
2023-03-02T12:17:32.875Z,21.09
2023-03-02T12:18:32.830Z,20.57
2023-03-02T12:19:32.793Z,20.87
2023-03-02T12:20:33.726Z,19.20
2023-03-02T12:21:32.852Z,19.60
2023-03-02T12:22:32.773Z,19.10
2023-03-02T12:23:32.778Z,18.90
2023-03-02T12:24:32.828Z,19.62
2023-03-02T12:25:32.762Z,18.73
2023-03-02T12:26:34.040Z,21.51
2023-03-02T12:27:32.734Z,18.80
2023-03-02T12:28:32.730Z,20.68
2023-03-02T12:29:32.799Z,18.59
2023-03-02T12:30:32.893Z,18.42
2023-03-02T12:31:32.694Z,20.32
2023-03-02T12:32:32.712Z,19.51
2023-03-02T12:33:32.664Z,18.70
2023-03-02T12:34:32.665Z,19.09
2023-03-02T12:35:33.093Z,17.12
2023-03-02T12:36:33.110Z,19.23
2023-03-02T12:37:32.626Z,19.43
2023-03-02T12:38:32.638Z,18.92
2023-03-02T12:39:32.629Z,18.94
2023-03-02T12:40:32.575Z,19.23
2023-03-02T12:41:32.581Z,18.51
2023-03-02T12:42:32.584Z,18.40
2023-03-02T12:43:32.551Z,17.22
2023-03-02T12:44:32.562Z,19.14
2023-03-02T12:45:32.599Z,18.73
2023-03-02T12:46:32.951Z,20.03
2023-03-02T12:47:32.870Z,19.23
2023-03-02T12:48:32.564Z,19.62
2023-03-02T12:49:32.492Z,19.81
2023-03-02T12:50:32.566Z,19.40
2023-03-02T12:51:32.626Z,17.29
2023-03-02T12:52:32.574Z,17.30
2023-03-02T12:53:32.465Z,16.33
2023-03-02T12:54:32.464Z,18.43
2023-03-02T12:55:32.497Z,18.24
2023-03-02T12:56:32.474Z,18.44
2023-03-02T12:57:32.421Z,18.05
2023-03-02T12:58:32.397Z,18.24
2023-03-02T12:59:32.404Z,18.45
2023-03-02T13:00:32.397Z,18.07
2023-03-02T13:01:32.402Z,18.96
2023-03-02T13:02:32.408Z,18.85
2023-03-02T13:03:32.340Z,20.23
2023-03-02T13:04:32.482Z,19.01
2023-03-02T13:05:32.325Z,18.30
2023-03-02T13:06:32.533Z,16.71
2023-03-02T13:07:32.300Z,18.62
2023-03-02T13:08:32.340Z,18.32
2023-03-02T13:09:32.270Z,18.33
2023-03-02T13:10:32.289Z,18.81
2023-03-02T13:11:32.244Z,17.42
2023-03-02T13:12:32.267Z,18.24
2023-03-02T13:13:32.362Z,19.04
2023-03-02T13:14:32.217Z,20.45
2023-03-02T13:15:32.229Z,19.54
2023-03-02T13:16:32.875Z,20.31
2023-03-02T13:17:32.234Z,18.71
2023-03-02T13:18:32.302Z,18.88
2023-03-02T13:19:32.197Z,18.27
2023-03-02T13:20:32.176Z,18.35
2023-03-02T13:21:32.160Z,18.94
2023-03-02T13:22:32.275Z,16.18
2023-03-02T13:23:32.195Z,18.30
2023-03-02T13:24:32.138Z,17.99
2023-03-02T13:25:32.127Z,17.92
2023-03-02T13:26:32.495Z,18.02
2023-03-02T13:27:32.124Z,18.90
2023-03-02T13:28:33.103Z,18.40
2023-03-02T13:29:32.137Z,18.49
2023-03-02T13:30:32.202Z,18.40
2023-03-02T13:31:32.230Z,17.49
2023-03-02T13:32:32.185Z,17.49
2023-03-02T13:33:32.069Z,18.01
2023-03-02T13:34:32.105Z,18.73
2023-03-02T13:35:32.061Z,18.95
2023-03-02T13:36:32.446Z,19.13
2023-03-02T13:37:32.059Z,18.63
2023-03-02T13:38:32.008Z,18.43
2023-03-02T13:39:32.011Z,18.90
2023-03-02T13:40:31.983Z,18.72
2023-03-02T13:41:31.989Z,18.03
2023-03-02T13:42:31.998Z,19.06
2023-03-02T13:43:31.983Z,19.96
2023-03-02T13:44:32.030Z,19.88
2023-03-02T13:45:31.956Z,20.36
2023-03-02T13:46:32.440Z,18.76
2023-03-02T13:47:31.933Z,19.88
2023-03-02T13:48:32.042Z,20.39
2023-03-02T13:49:31.918Z,21.33
2023-03-02T13:50:32.075Z,20.92
2023-03-02T13:51:31.892Z,20.13
2023-03-02T13:52:31.862Z,20.73
2023-03-02T13:53:31.894Z,20.75
2023-03-02T13:54:31.872Z,20.86
2023-03-02T13:55:31.878Z,22.56
2023-03-02T13:56:32.857Z,22.09
2023-03-02T13:57:31.838Z,22.83
2023-03-02T13:58:31.789Z,22.47
2023-03-02T13:59:32.783Z,23.44
2023-03-02T14:00:31.806Z,25.40
2023-03-02T14:01:31.797Z,25.74
2023-03-02T14:02:31.783Z,26.17
2023-03-02T14:03:31.763Z,28.33
2023-03-02T14:04:32.050Z,26.50
2023-03-02T14:05:31.797Z,26.42
2023-03-02T14:06:33.195Z,26.22
2023-03-02T14:07:31.814Z,26.12
2023-03-02T14:08:31.729Z,27.46
2023-03-02T14:09:31.757Z,28.69
2023-03-02T14:10:31.697Z,29.19
2023-03-02T14:11:32.012Z,27.86
2023-03-02T14:12:31.727Z,27.15
2023-03-02T14:13:31.761Z,28.29
2023-03-02T14:14:31.738Z,28.90
2023-03-02T14:15:31.712Z,28.61
2023-03-02T14:16:31.919Z,29.31
2023-03-02T14:17:31.685Z,30.94
2023-03-02T14:18:31.682Z,30.94
2023-03-02T14:19:31.668Z,29.11
2023-03-02T14:20:31.645Z,30.54
2023-03-02T14:21:32.208Z,32.48
2023-03-02T14:22:31.614Z,31.27
2023-03-02T14:23:31.652Z,31.27
2023-03-02T14:24:32.413Z,31.37
2023-03-02T14:25:31.586Z,32.09
2023-03-02T14:26:31.561Z,31.27
2023-03-02T14:27:31.623Z,31.16
2023-03-02T14:28:31.593Z,31.98
2023-03-02T14:29:31.599Z,31.98
2023-03-02T14:30:31.487Z,32.39
2023-03-02T14:31:31.956Z,32.18
2023-03-02T14:32:31.583Z,32.50
2023-03-02T14:33:31.524Z,31.98
2023-03-02T14:34:31.440Z,33.82
2023-03-02T14:35:31.513Z,30.05
2023-03-02T14:36:31.502Z,29.75
2023-03-02T14:37:31.443Z,30.57
2023-03-02T14:38:31.469Z,32.31
2023-03-02T14:39:31.473Z,31.29
2023-03-02T14:40:31.410Z,30.79
2023-03-02T14:41:34.430Z,32.62
2023-03-02T14:42:32.399Z,32.73
2023-03-02T14:43:31.440Z,31.31
2023-03-02T14:44:31.398Z,32.73
2023-03-02T14:45:31.391Z,32.62
2023-03-02T14:46:31.391Z,32.21
2023-03-02T14:47:31.322Z,33.24
2023-03-02T14:48:31.347Z,33.87